Aultman, Pennsylvania
Current Conditions -  °F | °C
As of 6:15 AM on Saturday 22 Nov 2014 (Local Time) from KIDI Reporting Station
Clear Clear  
Wind Chill: 19°   Ceiling: Unl
Heat Index: 19°   Visibility: 10mi
Dew Point:   Wind: 0mph
Humidity: 63%   Direction: NA
Pressure: 30.38"   Gusts: NA
Location:  40.56°N, 79.26°W
Report Text: KIDI 221115Z AUTO 00000KT 10SM CLR M07/M13 A3038 RMK A01
Loading
Personal Weather Stations






























Interactive Weather Map New forecast layout! Learn more

10-Day Weather Forecast

Advertisements
Track Severe Weather on mobile